Airfield :
LOGIN :

Register | Disclaimer

   EN    FR    IT 

 










Legend :    VFR   Marginal VFR   IFR   Intensive IFR   Very Intensive IFR
Visi :
Ceiling :
>= 8 km
>= 3000ft
5 to 8 km
1000 to 3000 ft
1500m to 5 km
500 to 1000 ft
800 to 1500m
200 to 500 ft
< 800m
< 200 ft
Symbols :   Thunderstorms  Fog  Heavy snow  Heavy precipitations  Wind > 20 kt
SIGMETs :     Misc.  Thunderstorms  Icing  Turbulence  Mountain Waves  Volcanic Ashes







- Airport Elevation : 121 ft
- IATA code : HUY
- Download approach charts


EGNJ - Humberside

CURRENT METAR :
  • 260120Z AUTO 08010KT 9999 -SN FEW011/// SCT019/// BKN025/// 01/M02 Q1034 REFZRA

EXPIRED METARs :
  • 260050Z AUTO 06006KT 7000 -SN SCT012/// BKN016/// OVC037/// 01/M01 Q1034 REFZDZ
  • 260020Z AUTO 09010KT 9999 FEW003/// BKN031/// OVC036/// 01/M01 Q1033 RERA
  • 252350Z AUTO 06010KT 9999 FEW013/// SCT018/// BKN025/// 01/M01 Q1033 RERA
  • 252320Z AUTO 06009KT 9999 SCT025/// BKN031/// OVC036/// 02/M03 Q1033
  • 252250Z AUTO 08009KT 9999 SCT028/// OVC033/// 02/M03 Q1033

TAF TAF EGNJ
Valid from the 26 at 00:00 until the 26 at 09:00 UTC


252258Z 2600/2609 09010KT 9999 SCT030
TEMPO 2600/2609 4000 -SHSN BKN009
PROB30
TEMPO 2600/2609 1200 SHSN BKN004
ATIS : +44 1652 682 020
No reported NOTAMs for that airfield.



MET'MAP, your aeronautical weather chart ! - Copyright ORBIFLY December 2007 - Disclaimer

ORBIFLY MET'MAP TEAM :

Programming & Development : Alexandra Zaïnal
Concept & Development : Baudouin d'Aumeries
Co-Development & Prog : Marc-Olivier Méhu
Technical & hardware support : Manuel Goepfert

Contact : metmap@orbifly.com




SOURCES & CREDITS :

   NOAA